createdAt,value
2022-09-15T00:01:47.298Z,13.93
2022-09-15T00:04:16.312Z,13.92
2022-09-15T00:06:45.032Z,14.18
2022-09-15T00:09:14.196Z,14.30
2022-09-15T00:11:42.823Z,14.18
2022-09-15T00:14:13.076Z,14.11
2022-09-15T00:16:41.786Z,13.89
2022-09-15T00:19:11.070Z,14.08
2022-09-15T00:21:45.067Z,14.13
2022-09-15T00:24:14.194Z,14.24
2022-09-15T00:26:42.910Z,14.48
2022-09-15T00:29:12.629Z,14.49
2022-09-15T00:31:41.275Z,14.56
2022-09-15T00:34:14.594Z,14.65
2022-09-15T00:36:43.732Z,14.69
2022-09-15T00:39:13.553Z,14.72
2022-09-15T00:41:44.253Z,14.79
2022-09-15T00:44:38.229Z,14.81
2022-09-15T00:47:19.363Z,14.80
2022-09-15T00:49:59.068Z,14.84
2022-09-15T00:52:58.336Z,14.75
2022-09-15T00:55:35.782Z,14.72
2022-09-15T00:58:18.129Z,14.70
2022-09-15T01:00:56.286Z,14.73
2022-09-15T01:03:27.427Z,14.71
2022-09-15T01:06:00.034Z,14.73
2022-09-15T01:08:37.763Z,14.87
2022-09-15T01:11:06.703Z,14.92
2022-09-15T01:13:37.185Z,15.10
2022-09-15T01:16:39.796Z,15.24
2022-09-15T01:19:42.176Z,15.43
2022-09-15T01:22:30.573Z,15.64
2022-09-15T01:25:11.173Z,15.78
2022-09-15T01:27:58.364Z,15.89
2022-09-15T01:30:27.480Z,16.00
2022-09-15T01:33:07.688Z,16.19
2022-09-15T01:35:54.476Z,16.33
2022-09-15T01:38:57.666Z,16.45
2022-09-15T01:41:47.074Z,16.53
2022-09-15T01:44:27.709Z,16.67
2022-09-15T01:47:10.527Z,16.85
2022-09-15T01:50:06.992Z,16.96
2022-09-15T01:52:37.355Z,17.05
2022-09-15T01:55:14.045Z,16.94
2022-09-15T01:57:43.286Z,17.30
2022-09-15T02:00:12.715Z,17.40
2022-09-15T02:02:55.742Z,17.65
2022-09-15T02:05:35.411Z,17.68
2022-09-15T02:08:32.444Z,17.79
2022-09-15T02:11:22.385Z,18.14
2022-09-15T02:14:21.871Z,18.25
2022-09-15T02:16:55.236Z,18.38
2022-09-15T02:19:42.297Z,18.60
2022-09-15T02:22:18.486Z,18.71
2022-09-15T02:24:53.158Z,18.64
2022-09-15T02:27:26.235Z,18.87
2022-09-15T02:30:00.276Z,19.12
2022-09-15T02:32:31.150Z,19.46
2022-09-15T02:35:05.700Z,19.53
2022-09-15T02:37:38.117Z,19.78
2022-09-15T02:40:08.701Z,19.98
2022-09-15T02:42:37.735Z,19.96
2022-09-15T02:45:07.052Z,20.17
2022-09-15T02:47:41.731Z,20.44
2022-09-15T02:50:10.981Z,20.70
2022-09-15T02:52:39.633Z,20.71
2022-09-15T02:55:08.726Z,20.92
2022-09-15T02:57:37.305Z,20.69
2022-09-15T03:00:14.622Z,21.18
2022-09-15T03:02:51.961Z,21.32
2022-09-15T03:05:39.707Z,21.32
2022-09-15T03:08:28.909Z,21.29
2022-09-15T03:11:18.036Z,21.46
2022-09-15T03:14:09.063Z,21.75
2022-09-15T03:16:59.447Z,21.68
2022-09-15T03:19:48.633Z,21.81
2022-09-15T03:22:37.840Z,21.77
2022-09-15T03:25:28.095Z,22.00
2022-09-15T03:28:17.288Z,21.79
2022-09-15T03:31:08.898Z,21.95
2022-09-15T03:33:59.072Z,22.36
2022-09-15T03:36:48.748Z,22.78
2022-09-15T03:39:38.371Z,22.57
2022-09-15T03:42:27.692Z,22.59
2022-09-15T03:45:17.016Z,22.32
2022-09-15T03:48:09.768Z,22.30
2022-09-15T03:50:58.982Z,22.33
2022-09-15T03:53:47.977Z,22.32
2022-09-15T03:56:37.211Z,22.22
2022-09-15T03:59:26.616Z,22.14
2022-09-15T04:02:16.103Z,22.03
2022-09-15T04:05:05.396Z,21.95
2022-09-15T04:07:54.585Z,21.82
2022-09-15T04:10:43.946Z,21.70
2022-09-15T04:13:33.652Z,21.36
2022-09-15T04:16:25.956Z,21.05
2022-09-15T04:19:15.931Z,20.89
2022-09-15T04:22:04.981Z,20.68
2022-09-15T04:24:54.800Z,20.81
2022-09-15T04:27:43.872Z,20.73
2022-09-15T04:30:33.108Z,20.61
2022-09-15T04:33:22.303Z,20.60
2022-09-15T04:36:18.038Z,20.55
2022-09-15T04:39:07.849Z,20.37
2022-09-15T04:41:57.182Z,20.31
2022-09-15T04:44:46.196Z,20.41
2022-09-15T04:47:35.476Z,20.44
2022-09-15T04:50:24.437Z,20.38
2022-09-15T04:53:24.081Z,20.44
2022-09-15T04:56:18.436Z,20.35
2022-09-15T04:59:07.687Z,20.47
2022-09-15T05:01:57.085Z,20.58
2022-09-15T05:04:46.678Z,20.45
2022-09-15T05:07:36.140Z,20.49
2022-09-15T05:10:25.366Z,20.46
2022-09-15T05:13:14.496Z,20.37
2022-09-15T05:16:13.189Z,20.28
2022-09-15T05:19:04.101Z,20.36
2022-09-15T05:21:53.254Z,20.29
2022-09-15T05:24:42.487Z,20.43
2022-09-15T05:27:35.361Z,20.72
2022-09-15T05:30:37.754Z,20.97
2022-09-15T05:33:29.404Z,20.99
2022-09-15T05:36:21.295Z,21.21
2022-09-15T05:39:10.658Z,21.40
2022-09-15T05:42:00.632Z,21.74
2022-09-15T05:44:50.438Z,21.85
2022-09-15T05:47:39.938Z,22.33
2022-09-15T05:50:29.215Z,22.54
2022-09-15T05:53:18.825Z,22.77
2022-09-15T05:56:13.004Z,23.50
2022-09-15T05:59:02.163Z,24.17
2022-09-15T06:01:51.314Z,23.95
2022-09-15T06:04:40.301Z,24.65
2022-09-15T06:07:29.801Z,24.81
2022-09-15T06:10:19.251Z,24.82
2022-09-15T06:13:08.703Z,25.72
2022-09-15T06:16:02.646Z,25.63
2022-09-15T06:18:53.930Z,25.80
2022-09-15T06:21:43.215Z,26.07
2022-09-15T06:24:32.427Z,26.01
2022-09-15T06:27:06.856Z,26.27
2022-09-15T06:29:37.217Z,26.37
2022-09-15T06:32:24.405Z,26.07
2022-09-15T06:34:53.300Z,26.84
2022-09-15T06:37:23.881Z,26.76
2022-09-15T06:39:52.773Z,26.92
2022-09-15T06:42:21.726Z,27.19
2022-09-15T06:44:50.906Z,27.45
2022-09-15T06:47:20.602Z,27.52
2022-09-15T06:49:49.501Z,27.67
2022-09-15T06:52:18.151Z,27.22
2022-09-15T06:54:46.897Z,26.32
2022-09-15T06:57:15.506Z,26.70
2022-09-15T06:59:44.725Z,26.93
2022-09-15T07:02:13.360Z,26.88
2022-09-15T07:04:42.819Z,26.94
2022-09-15T07:07:11.775Z,27.73
2022-09-15T07:09:41.414Z,27.78
2022-09-15T07:12:11.556Z,27.34
2022-09-15T07:14:40.247Z,27.13
2022-09-15T07:17:08.785Z,26.31
2022-09-15T07:19:37.646Z,26.98
2022-09-15T07:22:06.595Z,27.79
2022-09-15T07:24:35.381Z,26.75
2022-09-15T07:27:04.422Z,27.42
2022-09-15T07:29:37.588Z,27.79
2022-09-15T07:32:07.079Z,26.73
2022-09-15T07:34:35.774Z,26.44
2022-09-15T07:37:04.902Z,27.17
2022-09-15T07:39:34.145Z,26.81
2022-09-15T07:42:02.904Z,27.53
2022-09-15T07:44:31.616Z,28.86
2022-09-15T07:47:00.877Z,28.81
2022-09-15T07:49:30.036Z,27.32
2022-09-15T07:51:58.787Z,26.95
2022-09-15T07:54:28.098Z,27.43
2022-09-15T07:56:57.397Z,27.59
2022-09-15T07:59:27.213Z,27.29
2022-09-15T08:01:56.317Z,27.19
2022-09-15T08:04:24.959Z,27.11
2022-09-15T08:06:53.931Z,27.26
2022-09-15T08:09:22.643Z,27.79
2022-09-15T08:11:52.013Z,27.77
2022-09-15T08:14:20.592Z,27.64
2022-09-15T08:16:49.584Z,27.86
2022-09-15T08:19:18.128Z,28.13
2022-09-15T08:21:48.201Z,27.60
2022-09-15T08:24:17.723Z,27.98
2022-09-15T08:26:47.982Z,28.19
2022-09-15T08:29:16.819Z,28.41
2022-09-15T08:31:47.446Z,28.12
2022-09-15T08:34:18.231Z,28.89
2022-09-15T08:36:48.990Z,28.69
2022-09-15T08:39:17.827Z,28.19
2022-09-15T08:41:49.430Z,28.24
2022-09-15T08:44:33.513Z,28.15
2022-09-15T08:47:18.354Z,28.38
2022-09-15T08:50:16.323Z,28.26
2022-09-15T08:52:56.527Z,28.80
2022-09-15T08:55:51.242Z,28.66
2022-09-15T08:58:26.722Z,28.27
2022-09-15T09:01:05.624Z,27.86
2022-09-15T09:03:58.835Z,28.43
2022-09-15T09:06:46.339Z,28.69
2022-09-15T09:09:34.949Z,28.27
2022-09-15T09:12:19.968Z,28.25
2022-09-15T09:15:00.835Z,28.16
2022-09-15T09:17:33.340Z,28.24
2022-09-15T09:20:11.991Z,28.39
2022-09-15T09:22:45.385Z,28.38
2022-09-15T09:25:27.333Z,28.23
2022-09-15T09:27:59.513Z,27.56
2022-09-15T09:30:34.078Z,27.78
2022-09-15T09:33:36.650Z,27.90
2022-09-15T09:36:10.019Z,27.60
2022-09-15T09:38:44.755Z,27.84
2022-09-15T09:41:26.405Z,27.84
2022-09-15T09:43:57.054Z,27.95
2022-09-15T09:46:25.935Z,27.41
2022-09-15T09:49:13.372Z,27.84
2022-09-15T09:52:03.350Z,27.87
2022-09-15T09:54:34.391Z,27.99
2022-09-15T09:57:15.950Z,27.83
2022-09-15T09:59:50.903Z,27.52
2022-09-15T10:02:23.067Z,27.55
2022-09-15T10:05:16.132Z,27.59
2022-09-15T10:07:45.384Z,27.43
2022-09-15T10:10:24.204Z,27.19
2022-09-15T10:12:57.451Z,27.13
2022-09-15T10:15:35.048Z,27.01
2022-09-15T10:18:04.082Z,26.69
2022-09-15T10:21:00.838Z,26.94
2022-09-15T10:23:32.104Z,27.08
2022-09-15T10:26:21.397Z,26.89
2022-09-15T10:29:18.326Z,26.98
2022-09-15T10:31:48.013Z,27.11
2022-09-15T10:34:33.455Z,27.07
2022-09-15T10:37:31.910Z,26.94
2022-09-15T10:40:09.552Z,26.51
2022-09-15T10:42:52.044Z,26.59
2022-09-15T10:45:39.689Z,26.46
2022-09-15T10:48:46.550Z,26.69
2022-09-15T10:51:37.057Z,26.38
2022-09-15T10:54:37.132Z,26.48
2022-09-15T10:57:28.588Z,26.03
2022-09-15T11:00:03.697Z,25.90
2022-09-15T11:02:51.011Z,25.95
2022-09-15T11:05:22.638Z,26.13
2022-09-15T11:08:00.615Z,26.06
2022-09-15T11:10:37.286Z,26.13
2022-09-15T11:13:23.649Z,25.44
2022-09-15T11:16:11.115Z,25.81
2022-09-15T11:19:00.495Z,25.09
2022-09-15T11:21:31.781Z,25.41
2022-09-15T11:24:13.892Z,25.33
2022-09-15T11:26:55.978Z,24.96
2022-09-15T11:29:48.083Z,24.88
2022-09-15T11:32:23.934Z,24.45
2022-09-15T11:35:17.829Z,24.44
2022-09-15T11:37:52.051Z,24.21
2022-09-15T11:40:51.768Z,23.86
2022-09-15T11:43:26.341Z,23.79
2022-09-15T11:45:58.331Z,23.39
2022-09-15T11:48:35.058Z,22.94
2022-09-15T11:51:06.340Z,22.70
2022-09-15T11:53:51.573Z,22.34
2022-09-15T11:56:33.534Z,22.24
2022-09-15T11:59:35.532Z,22.08
2022-09-15T12:02:16.972Z,21.83
2022-09-15T12:05:09.151Z,21.53
2022-09-15T12:07:49.511Z,21.23
2022-09-15T12:10:43.302Z,21.07
2022-09-15T12:13:20.684Z,20.64
2022-09-15T12:15:51.810Z,20.61
2022-09-15T12:18:38.961Z,20.23
2022-09-15T12:21:22.251Z,19.93
2022-09-15T12:23:51.590Z,19.65
2022-09-15T12:26:26.901Z,19.52
2022-09-15T12:29:03.204Z,19.58
2022-09-15T12:31:38.279Z,19.44
2022-09-15T12:34:28.052Z,19.39
2022-09-15T12:37:15.302Z,19.21
2022-09-15T12:39:46.849Z,19.11
2022-09-15T12:42:19.539Z,19.16
2022-09-15T12:44:59.584Z,18.89
2022-09-15T12:47:40.278Z,18.97
2022-09-15T12:50:24.260Z,18.84
2022-09-15T12:53:02.760Z,18.80
2022-09-15T12:55:36.401Z,18.58
2022-09-15T12:58:11.840Z,18.36
2022-09-15T13:01:06.867Z,18.38
2022-09-15T13:06:35.904Z,18.18
2022-09-15T13:09:06.085Z,18.14
2022-09-15T13:11:41.399Z,18.10
2022-09-15T13:14:32.758Z,18.00
2022-09-15T13:17:08.867Z,17.92
2022-09-15T13:19:41.887Z,17.84
2022-09-15T13:22:28.368Z,17.62
2022-09-15T13:25:14.738Z,17.71
2022-09-15T13:27:53.051Z,17.67
2022-09-15T13:30:31.296Z,17.60
2022-09-15T13:33:26.006Z,17.37
2022-09-15T13:36:09.708Z,17.32
2022-09-15T13:38:41.471Z,17.15
2022-09-15T13:41:28.328Z,16.97
2022-09-15T13:44:06.251Z,16.87
2022-09-15T13:46:57.774Z,16.75
2022-09-15T13:49:47.002Z,16.60
2022-09-15T13:52:23.613Z,16.54
2022-09-15T13:55:28.843Z,16.56
2022-09-15T14:01:04.636Z,16.51
2022-09-15T14:03:52.198Z,16.56
2022-09-15T14:06:40.923Z,16.55
2022-09-15T14:09:29.027Z,16.54
2022-09-15T14:12:06.345Z,16.41
2022-09-15T14:14:48.979Z,16.44
2022-09-15T14:17:26.928Z,16.46
2022-09-15T14:19:58.320Z,16.47
2022-09-15T14:22:28.685Z,16.46
2022-09-15T14:24:59.401Z,16.46
2022-09-15T14:27:34.947Z,16.46
2022-09-15T14:30:09.490Z,16.30
2022-09-15T14:32:47.249Z,16.38
2022-09-15T14:35:23.999Z,16.56
2022-09-15T14:37:59.291Z,16.58
2022-09-15T14:40:31.028Z,16.53
2022-09-15T14:43:00.019Z,16.35
2022-09-15T14:48:31.558Z,16.34
2022-09-15T14:51:24.388Z,16.14
2022-09-15T14:53:59.596Z,16.29
2022-09-15T14:56:36.888Z,16.21
2022-09-15T14:59:12.861Z,16.13
2022-09-15T15:01:48.628Z,16.20
2022-09-15T15:04:36.021Z,16.24
2022-09-15T15:07:28.731Z,16.21
2022-09-15T15:10:02.651Z,16.12
2022-09-15T15:12:51.286Z,16.06
2022-09-15T15:15:20.882Z,16.02
2022-09-15T15:17:55.412Z,15.98
2022-09-15T15:20:31.108Z,15.95
2022-09-15T15:23:16.377Z,15.88
2022-09-15T15:25:45.509Z,15.92
2022-09-15T15:28:35.453Z,15.87
2022-09-15T15:31:22.843Z,15.73
2022-09-15T15:34:06.095Z,15.72
2022-09-15T15:36:36.736Z,15.62
2022-09-15T15:39:08.797Z,15.34
2022-09-15T15:41:43.697Z,15.52
2022-09-15T15:44:18.320Z,15.67
2022-09-15T15:46:56.814Z,15.64
2022-09-15T15:49:28.333Z,15.56
2022-09-15T15:52:01.503Z,15.42
2022-09-15T15:54:30.474Z,15.39
2022-09-15T15:57:21.273Z,15.18
2022-09-15T15:59:50.176Z,15.35
2022-09-15T16:02:18.843Z,15.31
2022-09-15T16:04:48.026Z,15.38
2022-09-15T16:07:24.469Z,15.53
2022-09-15T16:09:55.051Z,15.24
2022-09-15T16:12:24.579Z,15.33
2022-09-15T16:14:53.181Z,15.36
2022-09-15T16:17:22.506Z,15.27
2022-09-15T16:19:51.334Z,15.26
2022-09-15T16:22:21.798Z,15.10
2022-09-15T16:24:50.664Z,15.01
2022-09-15T16:27:19.816Z,15.09
2022-09-15T16:29:48.942Z,15.02
2022-09-15T16:32:20.930Z,15.00
2022-09-15T16:34:53.361Z,15.08
2022-09-15T16:37:22.992Z,15.04
2022-09-15T16:39:53.366Z,15.10
2022-09-15T16:42:22.534Z,15.15
2022-09-15T16:44:51.304Z,15.13
2022-09-15T16:47:20.234Z,15.02
2022-09-15T16:49:48.854Z,15.06
2022-09-15T16:52:18.625Z,14.95
2022-09-15T16:54:47.224Z,14.97
2022-09-15T16:57:18.936Z,14.79
2022-09-15T16:59:47.803Z,14.79
2022-09-15T17:02:16.620Z,14.93
2022-09-15T17:04:45.533Z,14.97
2022-09-15T17:07:14.119Z,14.95
2022-09-15T17:09:43.204Z,14.87
2022-09-15T17:14:43.453Z,14.83
2022-09-15T17:17:25.935Z,14.75
2022-09-15T17:19:55.493Z,14.57
2022-09-15T17:22:25.178Z,14.62
2022-09-15T17:24:54.412Z,14.60
2022-09-15T17:27:23.039Z,14.46
2022-09-15T17:29:51.852Z,14.55
2022-09-15T17:32:21.168Z,14.52
2022-09-15T17:34:50.250Z,14.63
2022-09-15T17:37:18.815Z,14.57
2022-09-15T17:39:47.811Z,14.47
2022-09-15T17:42:17.148Z,14.45
2022-09-15T17:44:46.490Z,14.32
2022-09-15T17:47:15.296Z,14.34
2022-09-15T17:49:44.413Z,14.40
2022-09-15T17:52:12.980Z,14.32
2022-09-15T17:54:41.879Z,14.23
2022-09-15T17:57:11.370Z,14.23
2022-09-15T17:59:40.972Z,14.34
2022-09-15T18:02:20.346Z,14.36
2022-09-15T18:04:52.693Z,14.64
2022-09-15T18:07:21.939Z,14.76
2022-09-15T18:09:50.966Z,14.88
2022-09-15T18:12:20.570Z,14.98
2022-09-15T18:14:49.306Z,15.13
2022-09-15T18:17:18.109Z,15.02
2022-09-15T18:19:46.671Z,14.98
2022-09-15T18:22:15.926Z,15.23
2022-09-15T18:24:45.370Z,15.24
2022-09-15T18:27:14.151Z,15.28
2022-09-15T18:29:42.866Z,15.42
2022-09-15T18:32:11.569Z,15.55
2022-09-15T18:34:40.077Z,15.51
2022-09-15T18:37:09.091Z,15.54
2022-09-15T18:39:57.406Z,15.49
2022-09-15T18:42:29.912Z,15.44
2022-09-15T18:45:22.408Z,15.47
2022-09-15T18:47:52.965Z,15.63
2022-09-15T18:50:24.428Z,15.63
2022-09-15T18:52:56.608Z,15.51
2022-09-15T18:55:26.036Z,15.18
2022-09-15T18:57:58.885Z,14.92
2022-09-15T19:00:31.024Z,14.91
2022-09-15T19:03:03.667Z,14.75
2022-09-15T19:05:34.253Z,14.72
2022-09-15T19:08:03.920Z,14.67
2022-09-15T19:10:33.417Z,14.61
2022-09-15T19:13:02.395Z,14.50
2022-09-15T19:15:34.721Z,14.45
2022-09-15T19:18:53.644Z,14.46
2022-09-15T19:21:27.130Z,14.42
2022-09-15T19:24:00.571Z,14.34
2022-09-15T19:26:30.403Z,14.34
2022-09-15T19:29:00.096Z,14.37
2022-09-15T19:31:29.007Z,14.07
2022-09-15T19:33:58.495Z,14.33
2022-09-15T19:36:28.991Z,14.22
2022-09-15T19:39:00.038Z,14.17
2022-09-15T19:41:30.251Z,14.26
2022-09-15T19:44:03.221Z,14.33
2022-09-15T19:46:32.477Z,14.23
2022-09-15T19:49:03.586Z,14.37
2022-09-15T19:51:32.595Z,14.37
2022-09-15T19:54:01.509Z,14.48
2022-09-15T19:56:30.990Z,14.45
2022-09-15T19:59:00.580Z,14.36
2022-09-15T20:01:31.107Z,14.38
2022-09-15T20:06:48.137Z,14.37
2022-09-15T20:09:16.895Z,14.36
2022-09-15T20:11:46.157Z,14.38
2022-09-15T20:14:15.217Z,14.64
2022-09-15T20:16:44.716Z,14.66
2022-09-15T20:19:13.900Z,14.68
2022-09-15T20:21:50.225Z,14.84
2022-09-15T20:24:21.633Z,14.92
2022-09-15T20:26:50.656Z,14.85
2022-09-15T20:29:20.253Z,14.87
2022-09-15T20:31:49.610Z,14.68
2022-09-15T20:34:19.565Z,14.79
2022-09-15T20:36:48.719Z,14.70
2022-09-15T20:39:20.320Z,14.83
2022-09-15T20:41:49.558Z,14.76
2022-09-15T20:44:18.193Z,14.92
2022-09-15T20:46:47.342Z,14.88
2022-09-15T20:49:16.673Z,15.03
2022-09-15T20:51:46.066Z,15.10
2022-09-15T20:54:14.847Z,15.17
2022-09-15T20:56:43.837Z,14.86
2022-09-15T20:59:16.096Z,14.96
2022-09-15T21:01:44.916Z,15.18
2022-09-15T21:04:13.670Z,15.11
2022-09-15T21:06:42.616Z,15.08
2022-09-15T21:09:11.227Z,15.12
2022-09-15T21:11:40.699Z,15.12
2022-09-15T21:14:09.438Z,15.14
2022-09-15T21:16:38.723Z,15.04
2022-09-15T21:19:13.177Z,14.98
2022-09-15T21:21:42.030Z,15.00
2022-09-15T21:24:10.921Z,14.90
2022-09-15T21:27:02.136Z,14.93
2022-09-15T21:29:31.861Z,14.83
2022-09-15T21:32:00.819Z,14.81
2022-09-15T21:34:29.943Z,14.69
2022-09-15T21:36:58.764Z,14.69
2022-09-15T21:39:28.188Z,14.48
2022-09-15T21:41:56.984Z,14.60
2022-09-15T21:44:26.224Z,14.79
2022-09-15T21:46:55.639Z,14.77
2022-09-15T21:49:24.693Z,14.82
2022-09-15T21:51:53.511Z,14.66
2022-09-15T21:54:22.629Z,14.80
2022-09-15T21:56:51.596Z,14.84
2022-09-15T21:59:20.402Z,14.66
2022-09-15T22:01:50.013Z,14.77
2022-09-15T22:04:18.944Z,14.66
2022-09-15T22:06:48.237Z,14.70
2022-09-15T22:09:22.917Z,14.66
2022-09-15T22:11:52.086Z,14.64
2022-09-15T22:14:22.292Z,14.76
2022-09-15T22:16:51.356Z,14.65
2022-09-15T22:19:21.058Z,14.70
2022-09-15T22:21:49.946Z,14.67
2022-09-15T22:24:18.940Z,14.53
2022-09-15T22:26:47.758Z,14.46
2022-09-15T22:29:16.725Z,14.38
2022-09-15T22:31:45.765Z,14.24
2022-09-15T22:34:14.412Z,14.25
2022-09-15T22:36:43.201Z,14.41
2022-09-15T22:39:13.511Z,14.33
2022-09-15T22:41:42.296Z,14.33
2022-09-15T22:44:19.820Z,14.45
2022-09-15T22:46:50.581Z,14.54
2022-09-15T22:49:19.349Z,14.69
2022-09-15T22:51:48.082Z,14.66
2022-09-15T22:54:17.082Z,14.63
2022-09-15T22:56:48.136Z,14.68
2022-09-15T22:59:18.138Z,14.64
2022-09-15T23:01:47.219Z,14.69
2022-09-15T23:04:16.952Z,14.73
2022-09-15T23:06:45.915Z,14.72
2022-09-15T23:09:14.909Z,14.70
2022-09-15T23:11:43.741Z,14.65
2022-09-15T23:14:18.921Z,14.70
2022-09-15T23:16:47.971Z,14.56
2022-09-15T23:19:16.876Z,14.60
2022-09-15T23:21:45.907Z,14.61
2022-09-15T23:24:14.817Z,14.59
2022-09-15T23:26:44.027Z,14.46
2022-09-15T23:29:12.904Z,14.64
2022-09-15T23:31:41.760Z,14.52
2022-09-15T23:34:10.615Z,14.56
2022-09-15T23:36:39.673Z,14.59
2022-09-15T23:39:08.356Z,14.70
2022-09-15T23:41:37.719Z,14.57
2022-09-15T23:44:06.892Z,14.67
2022-09-15T23:46:36.376Z,14.72
2022-09-15T23:49:05.055Z,14.79
2022-09-15T23:51:34.297Z,14.88
2022-09-15T23:54:04.202Z,14.68
2022-09-15T23:56:34.111Z,14.72
2022-09-15T23:59:02.887Z,14.59
